createdAt,value
2022-08-23T00:01:40.283Z,95403.19
2022-08-23T00:04:11.693Z,95399.44
2022-08-23T00:06:40.421Z,95400.03
2022-08-23T00:09:08.857Z,95402.97
2022-08-23T00:11:39.050Z,95394.88
2022-08-23T00:14:11.863Z,95403.81
2022-08-23T00:16:41.097Z,95406.31
2022-08-23T00:19:10.892Z,95404.44
2022-08-23T00:21:39.086Z,95398.22
2022-08-23T00:24:08.894Z,95401.19
2022-08-23T00:26:54.965Z,95395.22
2022-08-23T00:29:27.032Z,95398.75
2022-08-23T00:31:55.240Z,95390.09
2022-08-23T00:34:22.982Z,95400.41
2022-08-23T00:36:50.967Z,95390.91
2022-08-23T00:39:20.186Z,95388.47
2022-08-23T00:41:49.887Z,95389.28
2022-08-23T00:44:40.471Z,95389.28
2022-08-23T00:47:29.107Z,95389.31
2022-08-23T00:50:03.341Z,95392.03
2022-08-23T00:52:54.161Z,95389.88
2022-08-23T00:55:22.626Z,95388.25
2022-08-23T00:57:50.462Z,95385.81
2022-08-23T01:00:19.915Z,95386.03
2022-08-23T01:02:51.604Z,95382.47
2022-08-23T01:05:20.246Z,95385.41
2022-08-23T01:07:50.326Z,95386.00
2022-08-23T01:10:24.347Z,95380.06
2022-08-23T01:13:00.966Z,95385.19
2022-08-23T01:15:35.360Z,95383.56
2022-08-23T01:18:07.580Z,95379.53
2022-08-23T01:20:43.563Z,95379.03
2022-08-23T01:23:26.215Z,95387.16
2022-08-23T01:25:54.514Z,95378.78
2022-08-23T01:28:22.390Z,95375.56
2022-08-23T01:30:50.467Z,95379.38
2022-08-23T01:33:18.716Z,95380.78
2022-08-23T01:35:50.559Z,95396.28
2022-08-23T01:38:18.502Z,95394.88
2022-08-23T01:40:47.888Z,95392.38
2022-08-23T01:43:18.110Z,95394.47
2022-08-23T01:45:45.881Z,95397.19
2022-08-23T01:48:14.227Z,95394.28
2022-08-23T01:50:42.391Z,95398.09
2022-08-23T01:53:10.891Z,95401.88
2022-08-23T01:55:40.612Z,95402.94
2022-08-23T01:58:10.902Z,95404.59
2022-08-23T02:00:41.487Z,95407.03
2022-08-23T02:03:10.094Z,95414.63
2022-08-23T02:05:38.336Z,95408.69
2022-08-23T02:08:21.189Z,95415.50
2022-08-23T02:10:49.037Z,95419.03
2022-08-23T02:13:18.697Z,95411.66
2022-08-23T02:15:51.122Z,95410.59
2022-08-23T02:18:19.497Z,95409.50
2022-08-23T02:20:48.966Z,95413.53
2022-08-23T02:23:17.233Z,95416.88
2022-08-23T02:25:45.138Z,95418.50
2022-08-23T02:28:13.099Z,95421.78
2022-08-23T02:30:42.263Z,95414.72
2022-08-23T02:33:09.994Z,95418.50
2022-08-23T02:35:38.726Z,95429.06
2022-08-23T02:38:07.463Z,95433.13
2022-08-23T02:40:36.664Z,95430.69
2022-08-23T02:43:08.314Z,95434.75
2022-08-23T02:45:37.009Z,95429.09
2022-08-23T02:48:08.140Z,95432.34
2022-08-23T02:50:37.101Z,95433.72
2022-08-23T02:53:05.330Z,95434.53
2022-08-23T02:55:33.124Z,95438.91
2022-08-23T02:58:01.063Z,95438.31
2022-08-23T03:00:29.274Z,95432.66
2022-08-23T03:02:57.332Z,95436.47
2022-08-23T03:05:26.632Z,95448.69
2022-08-23T03:07:54.532Z,95445.16
2022-08-23T03:10:22.437Z,95447.34
2022-08-23T03:12:50.934Z,95453.28
2022-08-23T03:15:18.878Z,95454.38
2022-08-23T03:17:46.607Z,95450.84
2022-08-23T03:20:14.366Z,95459.28
2022-08-23T03:22:53.309Z,95457.13
2022-08-23T03:25:22.783Z,95457.41
2022-08-23T03:27:50.534Z,95464.44
2022-08-23T03:30:19.948Z,95464.44
2022-08-23T03:32:48.988Z,95468.50
2022-08-23T03:35:17.555Z,95470.16
2022-08-23T03:37:46.869Z,95468.53
2022-08-23T03:40:14.811Z,95473.41
2022-08-23T03:42:42.652Z,95467.19
2022-08-23T03:45:11.178Z,95472.31
2022-08-23T03:47:39.425Z,95483.69
2022-08-23T03:50:08.001Z,95478.56
2022-08-23T03:52:35.760Z,95485.31
2022-08-23T03:55:05.597Z,95485.03
2022-08-23T03:57:33.976Z,95489.38
2022-08-23T04:00:01.873Z,95486.66
2022-08-23T04:02:29.733Z,95489.09
2022-08-23T04:04:57.590Z,95500.19
2022-08-23T04:07:25.721Z,95498.03
2022-08-23T04:09:55.362Z,95488.88
2022-08-23T04:12:24.938Z,95496.41
2022-08-23T04:14:53.454Z,95493.72
2022-08-23T04:17:21.634Z,95504.53
2022-08-23T04:19:50.182Z,95499.41
2022-08-23T04:22:19.802Z,95499.16
2022-08-23T04:24:48.010Z,95502.94
2022-08-23T04:27:15.910Z,95505.91
2022-08-23T04:29:45.002Z,95505.91
2022-08-23T04:32:12.873Z,95513.47
2022-08-23T04:34:42.372Z,95504.56
2022-08-23T04:37:13.741Z,95499.44
2022-08-23T04:39:55.455Z,95510.25
2022-08-23T04:42:23.973Z,95514.56
2022-08-23T04:44:53.306Z,95518.91
2022-08-23T04:47:21.395Z,95518.91
2022-08-23T04:49:49.143Z,95514.31
2022-08-23T04:52:19.418Z,95515.38
2022-08-23T04:54:47.828Z,95518.91
2022-08-23T04:57:16.818Z,95516.47
2022-08-23T04:59:44.712Z,95526.47
2022-08-23T05:02:14.472Z,95525.66
2022-08-23T05:04:42.424Z,95529.44
2022-08-23T05:07:10.823Z,95530.50
2022-08-23T05:09:38.626Z,95537.53
2022-08-23T05:12:06.763Z,95540.78
2022-08-23T05:14:34.911Z,95549.19
2022-08-23T05:17:03.094Z,95535.09
2022-08-23T05:19:33.019Z,95543.22
2022-08-23T05:22:00.755Z,95538.88
2022-08-23T05:24:28.500Z,95547.28
2022-08-23T05:26:56.278Z,95551.84
2022-08-23T05:29:24.067Z,95546.16
2022-08-23T05:31:52.185Z,95552.59
2022-08-23T05:34:22.637Z,95556.38
2022-08-23T05:36:55.835Z,95557.72
2022-08-23T05:39:32.734Z,95555.50
2022-08-23T05:42:05.103Z,95553.31
2022-08-23T05:44:34.491Z,95555.72
2022-08-23T05:47:05.389Z,95560.28
2022-08-23T05:49:38.697Z,95561.81
2022-08-23T05:52:09.627Z,95564.72
2022-08-23T05:54:37.990Z,95568.44
2022-08-23T05:57:05.837Z,95565.03
2022-08-23T05:59:33.649Z,95564.44
2022-08-23T06:02:01.932Z,95567.47
2022-08-23T06:04:29.740Z,95572.63
2022-08-23T06:06:58.913Z,95572.53
2022-08-23T06:09:28.175Z,95572.41
2022-08-23T06:11:55.898Z,95564.72
2022-08-23T06:14:23.832Z,95570.31
2022-08-23T06:16:55.756Z,95566.22
2022-08-23T06:19:24.907Z,95570.25
2022-08-23T06:21:53.391Z,95569.41
2022-08-23T06:24:21.649Z,95560.13
2022-08-23T06:26:50.760Z,95565.03
2022-08-23T06:29:20.640Z,95558.97
2022-08-23T06:31:52.487Z,95562.34
2022-08-23T06:34:23.037Z,95560.81
2022-08-23T06:36:53.918Z,95553.31
2022-08-23T06:39:24.371Z,95556.22
2022-08-23T06:41:54.725Z,95550.50
2022-08-23T06:44:22.526Z,95547.91
2022-08-23T06:46:50.246Z,95551.25
2022-08-23T06:49:18.285Z,95550.13
2022-08-23T06:51:51.015Z,95555.66
2022-08-23T06:54:22.406Z,95556.44
2022-08-23T06:56:51.374Z,95542.84
2022-08-23T06:59:21.116Z,95543.66
2022-08-23T07:01:52.676Z,95543.22
2022-08-23T07:04:23.117Z,95546.19
2022-08-23T07:06:51.152Z,95549.09
2022-08-23T07:09:19.645Z,95549.81
2022-08-23T07:11:47.809Z,95548.06
2022-08-23T07:14:17.513Z,95553.25
2022-08-23T07:16:49.869Z,95547.75
2022-08-23T07:19:18.863Z,95549.81
2022-08-23T07:21:48.650Z,95549.66
2022-08-23T07:24:17.884Z,95553.31
2022-08-23T07:26:47.481Z,95554.28
2022-08-23T07:29:16.803Z,95558.75
2022-08-23T07:31:49.614Z,95558.75
2022-08-23T07:34:17.896Z,95555.16
2022-08-23T07:36:47.084Z,95551.00
2022-08-23T07:39:15.613Z,95560.44
2022-08-23T07:41:44.490Z,95556.50
2022-08-23T07:44:12.983Z,95561.81
2022-08-23T07:46:47.075Z,95563.13
2022-08-23T07:49:16.696Z,95562.09
2022-08-23T07:51:47.843Z,95570.84
2022-08-23T07:54:16.405Z,95560.78
2022-08-23T07:56:44.430Z,95562.13
2022-08-23T07:59:12.806Z,95570.25
2022-08-23T08:01:44.173Z,95572.09
2022-08-23T08:04:12.512Z,95571.00
2022-08-23T08:06:46.118Z,95568.72
2022-08-23T08:09:15.398Z,95579.03
2022-08-23T08:11:47.390Z,95580.09
2022-08-23T08:14:17.309Z,95576.91
2022-08-23T08:16:47.348Z,95579.56
2022-08-23T08:19:16.916Z,95587.91
2022-08-23T08:21:48.551Z,95582.41
2022-08-23T08:24:17.807Z,95581.88
2022-08-23T08:26:46.848Z,95591.63
2022-08-23T08:29:15.246Z,95586.75
2022-08-23T08:31:45.348Z,95581.84
2022-08-23T08:34:13.560Z,95587.25
2022-08-23T08:36:43.599Z,95588.53
2022-08-23T08:39:16.056Z,95581.88
2022-08-23T08:42:04.244Z,95579.09
2022-08-23T08:44:41.666Z,95584.16
2022-08-23T08:47:15.282Z,95589.53
2022-08-23T08:49:49.000Z,95586.91
2022-08-23T08:52:21.192Z,95597.56
2022-08-23T08:54:53.275Z,95595.13
2022-08-23T08:57:27.430Z,95584.63
2022-08-23T09:00:01.774Z,95592.38
2022-08-23T09:02:33.787Z,95582.22
2022-08-23T09:05:04.962Z,95586.25
2022-08-23T09:07:44.186Z,95582.28
2022-08-23T09:10:35.416Z,95590.66
2022-08-23T09:13:25.298Z,95594.38
2022-08-23T09:16:01.296Z,95594.66
2022-08-23T09:18:35.292Z,95593.09
2022-08-23T09:21:06.766Z,95595.53
2022-08-23T09:23:38.945Z,95590.06
2022-08-23T09:26:19.738Z,95589.78
2022-08-23T09:28:47.989Z,95589.66
2022-08-23T09:31:39.573Z,95589.13
2022-08-23T09:34:08.120Z,95586.66
2022-08-23T09:36:38.559Z,95588.41
2022-08-23T09:39:10.305Z,95580.66
2022-08-23T09:41:43.530Z,95582.81
2022-08-23T09:44:16.344Z,95584.41
2022-08-23T09:46:44.635Z,95584.78
2022-08-23T09:49:26.185Z,95581.63
2022-08-23T09:51:56.060Z,95575.53
2022-08-23T09:54:30.944Z,95572.53
2022-08-23T09:57:02.621Z,95574.81
2022-08-23T09:59:40.282Z,95571.25
2022-08-23T10:02:17.113Z,95572.94
2022-08-23T10:04:47.359Z,95571.16
2022-08-23T10:07:30.822Z,95574.72
2022-08-23T10:10:23.628Z,95568.72
2022-08-23T10:12:54.290Z,95559.53
2022-08-23T10:15:36.171Z,95560.03
2022-08-23T10:18:12.181Z,95559.75
2022-08-23T10:20:46.380Z,95565.94
2022-08-23T10:23:24.664Z,95574.88
2022-08-23T10:25:56.204Z,95577.22
2022-08-23T10:28:54.728Z,95559.78
2022-08-23T10:31:34.324Z,95564.03
2022-08-23T10:34:15.764Z,95558.38
2022-08-23T10:36:56.893Z,95556.16
2022-08-23T10:39:28.080Z,95554.19
2022-08-23T10:42:03.815Z,95557.66
2022-08-23T10:44:37.558Z,95561.66
2022-08-23T10:47:34.786Z,95549.56
2022-08-23T10:50:08.291Z,95553.06
2022-08-23T10:52:41.503Z,95552.94
2022-08-23T10:55:24.597Z,95546.75
2022-08-23T10:57:54.316Z,95550.09
2022-08-23T11:00:27.295Z,95544.09
2022-08-23T11:03:00.532Z,95552.31
2022-08-23T11:05:32.568Z,95551.56
2022-08-23T11:08:03.659Z,95551.19
2022-08-23T11:10:56.833Z,95552.56
2022-08-23T11:13:26.816Z,95545.69
2022-08-23T11:16:02.009Z,95535.31
2022-08-23T11:18:39.578Z,95540.53
2022-08-23T11:21:31.611Z,95548.44
2022-08-23T11:24:30.447Z,95545.59
2022-08-23T11:27:06.643Z,95539.91
2022-08-23T11:29:37.759Z,95542.88
2022-08-23T11:32:44.171Z,95542.06
2022-08-23T11:35:43.199Z,95543.81
2022-08-23T11:38:12.599Z,95545.75
2022-08-23T11:40:57.002Z,95534.53
2022-08-23T11:43:29.801Z,95532.81
2022-08-23T11:46:18.267Z,95533.56
2022-08-23T11:48:55.655Z,95538.25
2022-08-23T11:51:31.938Z,95540.94
2022-08-23T11:54:21.299Z,95539.72
2022-08-23T11:57:11.829Z,95540.19
2022-08-23T11:59:57.261Z,95549.84
2022-08-23T12:02:42.155Z,95548.84
2022-08-23T12:05:32.411Z,95540.94
2022-08-23T12:08:46.845Z,95531.22
2022-08-23T12:11:17.017Z,95537.16
2022-08-23T12:14:22.956Z,95535.47
2022-08-23T12:16:52.176Z,95538.63
2022-08-23T12:19:39.589Z,95530.84
2022-08-23T12:22:13.923Z,95531.84
2022-08-23T12:24:44.858Z,95533.91
2022-08-23T12:27:27.521Z,95530.16
2022-08-23T12:30:02.686Z,95534.81
2022-08-23T12:32:42.235Z,95534.63
2022-08-23T12:35:28.153Z,95538.31
2022-08-23T12:38:02.013Z,95544.25
2022-08-23T12:40:33.766Z,95537.03
2022-08-23T12:43:09.824Z,95533.41
2022-08-23T12:45:42.600Z,95535.09
2022-08-23T12:48:13.904Z,95534.69
2022-08-23T12:50:43.664Z,95536.34
2022-08-23T12:53:13.985Z,95539.81
2022-08-23T12:55:46.333Z,95534.00
2022-08-23T12:58:16.269Z,95529.13
2022-08-23T13:00:53.115Z,95525.09
2022-08-23T13:03:28.307Z,95533.16
2022-08-23T13:06:01.901Z,95524.13
2022-08-23T13:08:35.562Z,95522.28
2022-08-23T13:11:08.002Z,95517.97
2022-08-23T13:13:39.188Z,95504.00
2022-08-23T13:16:27.309Z,95512.03
2022-08-23T13:19:11.113Z,95513.16
2022-08-23T13:21:39.867Z,95511.44
2022-08-23T13:24:38.170Z,95503.38
2022-08-23T13:27:22.535Z,95508.72
2022-08-23T13:29:52.809Z,95506.72
2022-08-23T13:32:33.662Z,95504.69
2022-08-23T13:35:26.719Z,95491.63
2022-08-23T13:37:58.009Z,95502.63
2022-08-23T13:40:29.516Z,95494.19
2022-08-23T13:43:00.648Z,95496.75
2022-08-23T13:45:30.832Z,95497.06
2022-08-23T13:48:02.726Z,95483.13
2022-08-23T13:50:34.545Z,95492.91
2022-08-23T13:53:14.439Z,95493.00
2022-08-23T13:55:47.419Z,95492.06
2022-08-23T13:58:25.790Z,95497.44
2022-08-23T14:00:55.657Z,95491.03
2022-08-23T14:03:24.220Z,95486.56
2022-08-23T14:05:53.885Z,95486.66
2022-08-23T14:08:22.518Z,95481.91
2022-08-23T14:10:51.146Z,95485.81
2022-08-23T14:13:29.798Z,95484.59
2022-08-23T14:21:39.684Z,95474.84
2022-08-23T14:24:07.682Z,95474.44
2022-08-23T14:26:36.295Z,95480.78
2022-08-23T14:29:04.218Z,95476.41
2022-08-23T14:31:33.256Z,95476.44
2022-08-23T14:34:02.183Z,95474.22
2022-08-23T14:36:30.229Z,95469.97
2022-08-23T14:38:59.427Z,95469.84
2022-08-23T14:41:29.680Z,95477.44
2022-08-23T14:43:57.582Z,95474.72
2022-08-23T14:46:25.436Z,95479.78
2022-08-23T14:48:53.240Z,95477.69
2022-08-23T14:51:27.226Z,95485.47
2022-08-23T14:53:55.626Z,95475.47
2022-08-23T14:56:25.147Z,95478.34
2022-08-23T14:58:53.112Z,95472.81
2022-08-23T15:01:21.634Z,95487.13
2022-08-23T15:03:50.270Z,95482.50
2022-08-23T15:06:19.607Z,95479.88
2022-08-23T15:08:48.053Z,95477.00
2022-08-23T15:14:05.757Z,95481.22
2022-08-23T15:16:33.704Z,95476.31
2022-08-23T15:19:01.784Z,95472.19
2022-08-23T15:21:29.666Z,95477.25
2022-08-23T15:23:57.461Z,95475.03
2022-08-23T15:26:28.024Z,95478.09
2022-08-23T15:28:55.828Z,95479.28
2022-08-23T15:31:25.730Z,95471.31
2022-08-23T15:33:53.651Z,95470.41
2022-08-23T15:36:21.501Z,95465.25
2022-08-23T15:38:51.267Z,95465.97
2022-08-23T15:41:21.731Z,95479.53
2022-08-23T15:43:50.200Z,95472.81
2022-08-23T15:46:20.672Z,95470.41
2022-08-23T15:48:54.205Z,95469.66
2022-08-23T15:51:21.973Z,95479.19
2022-08-23T15:53:49.833Z,95468.75
2022-08-23T15:56:22.426Z,95482.63
2022-08-23T15:58:50.555Z,95484.59
2022-08-23T16:01:21.752Z,95477.75
2022-08-23T16:03:53.581Z,95472.94
2022-08-23T16:06:21.500Z,95472.06
2022-08-23T16:08:52.729Z,95471.16
2022-08-23T16:11:21.656Z,95469.13
2022-08-23T16:13:51.585Z,95473.91
2022-08-23T16:16:24.975Z,95473.97
2022-08-23T16:18:55.070Z,95474.19
2022-08-23T16:21:25.145Z,95463.38
2022-08-23T16:23:52.971Z,95470.16
2022-08-23T16:26:34.740Z,95470.84
2022-08-23T16:29:04.560Z,95469.81
2022-08-23T16:31:38.840Z,95479.22
2022-08-23T16:34:11.420Z,95484.34
2022-08-23T16:36:41.109Z,95476.63
2022-08-23T16:39:09.338Z,95477.16
2022-08-23T16:41:37.143Z,95476.22
2022-08-23T16:44:05.377Z,95482.38
2022-08-23T16:46:33.300Z,95484.16
2022-08-23T16:49:01.115Z,95484.47
2022-08-23T16:51:30.313Z,95490.41
2022-08-23T16:54:02.867Z,95494.75
2022-08-23T16:56:31.588Z,95476.97
2022-08-23T16:58:59.776Z,95480.84
2022-08-23T17:01:28.283Z,95478.50
2022-08-23T17:03:56.523Z,95479.88
2022-08-23T17:06:24.346Z,95480.44
2022-08-23T17:08:53.651Z,95483.53
2022-08-23T17:11:21.474Z,95480.38
2022-08-23T17:13:49.303Z,95484.84
2022-08-23T17:16:18.839Z,95491.44
2022-08-23T17:18:47.214Z,95497.16
2022-08-23T17:21:21.452Z,95495.19
2022-08-23T17:23:49.241Z,95502.47
2022-08-23T17:26:18.667Z,95505.28
2022-08-23T17:28:46.922Z,95503.97
2022-08-23T17:31:16.089Z,95512.16
2022-08-23T17:33:44.230Z,95509.88
2022-08-23T17:36:27.384Z,95508.81
2022-08-23T17:38:58.054Z,95509.09
2022-08-23T17:41:28.359Z,95514.09
2022-08-23T17:43:56.430Z,95520.06
2022-08-23T17:46:24.572Z,95520.19
2022-08-23T17:48:52.703Z,95519.78
2022-08-23T17:51:20.754Z,95518.03
2022-08-23T17:53:48.515Z,95526.13
2022-08-23T17:56:16.695Z,95529.25
2022-08-23T17:58:45.946Z,95532.41
2022-08-23T18:01:13.897Z,95536.84
2022-08-23T18:03:42.088Z,95541.03
2022-08-23T18:06:16.818Z,95541.91
2022-08-23T18:08:45.558Z,95547.66
2022-08-23T18:11:13.926Z,95545.22
2022-08-23T18:13:41.809Z,95552.22
2022-08-23T18:16:14.270Z,95555.38
2022-08-23T18:18:42.560Z,95564.75
2022-08-23T18:21:12.656Z,95559.09
2022-08-23T18:23:41.098Z,95568.03
2022-08-23T18:26:30.346Z,95566.19
2022-08-23T18:28:57.896Z,95569.38
2022-08-23T18:31:27.777Z,95583.88
2022-08-23T18:34:00.377Z,95580.88
2022-08-23T18:36:29.967Z,95584.50
2022-08-23T18:38:58.526Z,95586.22
2022-08-23T18:41:28.349Z,95586.09
2022-08-23T18:43:56.164Z,95593.06
2022-08-23T18:46:28.445Z,95588.59
2022-08-23T18:49:00.934Z,95595.91
2022-08-23T18:51:29.670Z,95596.56
2022-08-23T18:53:57.655Z,95598.03
2022-08-23T18:56:25.706Z,95602.22
2022-08-23T18:58:54.457Z,95606.75
2022-08-23T19:01:24.278Z,95606.59
2022-08-23T19:03:52.753Z,95610.16
2022-08-23T19:06:22.391Z,95616.75
2022-08-23T19:08:50.910Z,95612.41
2022-08-23T19:11:19.985Z,95619.31
2022-08-23T19:13:48.664Z,95617.84
2022-08-23T19:16:17.102Z,95621.22
2022-08-23T19:18:47.231Z,95624.75
2022-08-23T19:21:16.247Z,95625.69
2022-08-23T19:23:45.618Z,95636.78
2022-08-23T19:26:15.222Z,95632.88
2022-08-23T19:28:43.498Z,95632.88
2022-08-23T19:31:11.590Z,95642.94
2022-08-23T19:33:39.493Z,95640.63
2022-08-23T19:36:18.949Z,95642.19
2022-08-23T19:38:57.670Z,95638.44
2022-08-23T19:41:25.744Z,95648.22
2022-08-23T19:43:53.783Z,95648.66
2022-08-23T19:46:21.804Z,95652.00
2022-08-23T19:48:51.311Z,95646.19
2022-08-23T19:51:21.219Z,95644.88
2022-08-23T19:54:04.556Z,95655.75
2022-08-23T19:56:36.397Z,95654.72
2022-08-23T19:59:05.991Z,95658.78
2022-08-23T20:01:34.151Z,95661.44
2022-08-23T20:04:02.864Z,95665.22
2022-08-23T20:06:33.734Z,95669.97
2022-08-23T20:09:01.692Z,95671.41
2022-08-23T20:11:29.573Z,95665.44
2022-08-23T20:13:59.374Z,95668.16
2022-08-23T20:16:27.895Z,95675.38
2022-08-23T20:18:56.166Z,95677.09
2022-08-23T20:21:24.639Z,95676.69
2022-08-23T20:24:04.468Z,95677.59
2022-08-23T20:26:35.133Z,95675.81
2022-08-23T20:29:06.315Z,95678.66
2022-08-23T20:31:36.589Z,95688.84
2022-08-23T20:34:05.247Z,95686.94
2022-08-23T20:36:33.419Z,95683.69
2022-08-23T20:39:02.361Z,95687.06
2022-08-23T20:41:32.854Z,95698.06
2022-08-23T20:44:02.180Z,95696.03
2022-08-23T20:46:31.764Z,95693.94
2022-08-23T20:48:59.890Z,95693.53
2022-08-23T20:51:29.422Z,95690.28
2022-08-23T20:53:58.241Z,95694.13
2022-08-23T20:56:28.186Z,95691.19
2022-08-23T20:58:56.531Z,95690.78
2022-08-23T21:01:24.909Z,95691.38
2022-08-23T21:03:54.332Z,95689.56
2022-08-23T21:06:23.923Z,95689.72
2022-08-23T21:08:55.982Z,95696.88
2022-08-23T21:11:26.026Z,95690.13
2022-08-23T21:13:54.625Z,95696.75
2022-08-23T21:16:23.132Z,95695.75
2022-08-23T21:18:52.116Z,95700.41
2022-08-23T21:21:25.341Z,95692.81
2022-08-23T21:23:53.956Z,95690.16
2022-08-23T21:26:23.411Z,95690.16
2022-08-23T21:28:51.434Z,95696.44
2022-08-23T21:31:24.383Z,95692.91
2022-08-23T21:33:53.151Z,95690.75
2022-08-23T21:36:23.197Z,95687.44
2022-08-23T21:38:52.534Z,95683.09
2022-08-23T21:41:34.640Z,95687.75
2022-08-23T21:44:04.113Z,95681.47
2022-08-23T21:46:32.277Z,95687.97
2022-08-23T21:49:00.846Z,95685.38
2022-08-23T21:51:28.817Z,95678.47
2022-08-23T21:54:00.956Z,95683.13
2022-08-23T21:56:29.336Z,95674.63
2022-08-23T21:58:59.537Z,95676.66
2022-08-23T22:01:27.769Z,95667.69
2022-08-23T22:03:57.115Z,95672.03
2022-08-23T22:06:25.443Z,95678.81
2022-08-23T22:08:53.224Z,95679.50
2022-08-23T22:11:24.104Z,95675.66
2022-08-23T22:13:52.468Z,95674.56
2022-08-23T22:16:20.345Z,95676.34
2022-08-23T22:18:48.169Z,95675.81
2022-08-23T22:21:16.146Z,95673.81
2022-08-23T22:23:44.573Z,95671.88
2022-08-23T22:26:14.309Z,95669.94
2022-08-23T22:28:44.734Z,95669.91
2022-08-23T22:31:14.953Z,95664.44
2022-08-23T22:33:43.743Z,95661.88
2022-08-23T22:36:14.981Z,95662.09
2022-08-23T22:38:42.794Z,95673.41
2022-08-23T22:41:11.232Z,95672.59
2022-08-23T22:43:38.965Z,95668.47
2022-08-23T22:46:10.732Z,95671.47
2022-08-23T22:48:38.866Z,95671.97
2022-08-23T22:51:09.693Z,95674.41
2022-08-23T22:53:39.405Z,95667.53
2022-08-23T22:56:08.492Z,95676.31
2022-08-23T22:58:36.575Z,95678.56
2022-08-23T23:06:47.405Z,95687.50
2022-08-23T23:09:15.270Z,95685.75
2022-08-23T23:11:43.812Z,95677.88
2022-08-23T23:14:12.946Z,95680.00
2022-08-23T23:16:41.026Z,95682.50
2022-08-23T23:19:26.393Z,95677.09
2022-08-23T23:21:57.537Z,95678.97
2022-08-23T23:24:27.976Z,95677.38
2022-08-23T23:26:55.986Z,95670.72
2022-08-23T23:29:23.867Z,95679.22
2022-08-23T23:31:51.863Z,95678.06
2022-08-23T23:34:19.813Z,95683.34
2022-08-23T23:36:48.027Z,95675.88
2022-08-23T23:39:17.718Z,95683.00
2022-08-23T23:41:45.479Z,95672.53
2022-08-23T23:44:13.281Z,95669.97
2022-08-23T23:46:43.398Z,95675.25
2022-08-23T23:49:13.116Z,95666.72
2022-08-23T23:51:41.488Z,95671.13
2022-08-23T23:54:09.271Z,95672.56
2022-08-23T23:56:43.812Z,95666.22
2022-08-23T23:59:11.573Z,95672.53
